»·PEaware :: N54073 KAPA-KCOS

N54073 :: KAPA-KCOS

FLIGHT INFORMATION

Flight Status: Arrived
Operator: Privately registered:
United States
More flights under this callsign
Pilot: Anonymous 27411 (27411)
Aircraft: BEECH AIRCRAFT BARON
(BE58)
More flights by this aircraft type
Origin: KAPA Centennial
United States
Destination: KCOS City Of Colorado Springs Mun
United States
More flights between these airports :: More routes between these airports
Route: DEN2 LUFSE V389 ADANE BRK
File this flight plan on PilotEdge
Remarks: thank you!
Altitude:
(Current/Filed)
9,000ft
Speed:
(Current/Filed)
175kts
Departed: 19-Dec-21 05:05 PM
Arrived: 19-Dec-21 05:32 PM
Distance/Time
Traveled:
46nm/0:27
Distance/Time
To Go:
Arrived

Flight Plot

Page will automatically refresh every two minutes.

Flight plan parsing failed; only flown route is shown


Map Options




Map Legend


Flown Route
Filed Route
Departure Airport
Arrival Airport
Navaid (VOR, NDB)
Fix

Horizontal Profiles

Position Reports

Time Latitude Longitude Heading Altitude Ground
Speed
19-Dec-21 16:37 39.569628 -104.848410 180 5888ft 0kts
19-Dec-21 16:38 39.569628 -104.848410 180 5888ft 0kts
19-Dec-21 16:40 39.569628 -104.848410 180 5888ft 0kts
19-Dec-21 16:41 39.569628 -104.848410 180 5888ft 0kts
19-Dec-21 16:42 39.569628 -104.848410 180 5888ft 0kts
19-Dec-21 16:43 39.569628 -104.848410 180 5888ft 0kts
19-Dec-21 16:44 39.569628 -104.848410 180 5888ft 0kts
19-Dec-21 16:45 39.569628 -104.848410 180 5888ft 0kts
19-Dec-21 16:46 39.569628 -104.848410 180 5888ft 0kts
19-Dec-21 16:47 39.569628 -104.848410 180 5888ft 0kts
19-Dec-21 16:48 39.569628 -104.848410 180 5888ft 0kts
19-Dec-21 16:49 39.569628 -104.848410 180 5888ft 0kts
19-Dec-21 16:50 39.569628 -104.848410 180 5888ft 0kts
19-Dec-21 16:51 39.569628 -104.848410 180 5888ft 0kts
19-Dec-21 16:52 39.569628 -104.848410 180 5888ft 0kts
19-Dec-21 16:53 39.569298 -104.848783 182 5888ft 4kts
19-Dec-21 16:54 39.568125 -104.849388 178 5888ft 6kts
19-Dec-21 16:55 39.562511 -104.849069 176 5888ft 22kts
19-Dec-21 16:56 39.557093 -104.848801 172 5888ft 0kts
19-Dec-21 16:57 39.556994 -104.848786 172 5888ft 0kts
19-Dec-21 16:58 39.556994 -104.848786 172 5888ft 0kts
19-Dec-21 16:59 39.556994 -104.848786 172 5888ft 0kts
19-Dec-21 17:00 39.556994 -104.848786 172 5888ft 0kts
19-Dec-21 17:01 39.556994 -104.848786 172 5888ft 0kts
19-Dec-21 17:02 39.556833 -104.848982 261 5888ft 0kts
19-Dec-21 17:02 39.556833 -104.848982 261 5888ft 0kts
19-Dec-21 17:03 39.556813 -104.849326 267 5888ft 7kts
19-Dec-21 17:05 39.573554 -104.851048 357 6176ft 92kts
19-Dec-21 17:06 39.603213 -104.854670 348 7065ft 116kts
19-Dec-21 17:06 39.630013 -104.861141 347 7886ft 119kts
19-Dec-21 17:07 39.660500 -104.848525 66 8777ft 138kts
19-Dec-21 17:08 39.649025 -104.795002 111 8992ft 176kts
19-Dec-21 17:09 39.613820 -104.753308 150 9015ft 183kts
19-Dec-21 17:10 39.572515 -104.714287 141 9015ft 186kts
19-Dec-21 17:11 39.533347 -104.671198 148 9004ft 188kts
19-Dec-21 17:12 39.489352 -104.635804 146 9048ft 186kts
19-Dec-21 17:13 39.448702 -104.594928 144 9105ft 185kts
19-Dec-21 17:14 39.406885 -104.554144 144 9004ft 187kts
19-Dec-21 17:15 39.364673 -104.517983 148 9139ft 182kts
19-Dec-21 17:16 39.322489 -104.478772 140 9042ft 184kts
19-Dec-21 17:17 39.278866 -104.442535 147 9064ft 182kts
19-Dec-21 17:18 39.236060 -104.406406 146 9072ft 185kts
19-Dec-21 17:19 39.191329 -104.402769 215 9217ft 170kts
19-Dec-21 17:20 39.153237 -104.438496 218 8841ft 175kts
19-Dec-21 17:21 39.114928 -104.473192 218 9013ft 167kts
19-Dec-21 17:22 39.081260 -104.513751 218 9082ft 167kts
19-Dec-21 17:23 39.050871 -104.557160 241 9197ft 161kts
19-Dec-21 17:24 39.020126 -104.603321 229 9034ft 170kts
19-Dec-21 17:25 38.988815 -104.642745 227 9056ft 139kts
19-Dec-21 17:26 38.964323 -104.676517 203 9005ft 130kts
19-Dec-21 17:27 38.927660 -104.687190 181 8367ft 134kts
19-Dec-21 17:28 38.889802 -104.686040 178 7728ft 139kts
19-Dec-21 17:29 38.851641 -104.685632 180 6931ft 136kts
19-Dec-21 17:30 38.814205 -104.685728 177 6237ft 127kts
19-Dec-21 17:31 38.802071 -104.687258 266 6191ft 0kts
19-Dec-21 17:32 38.803195 -104.688549 287 6191ft 22kts
19-Dec-21 17:33 38.803615 -104.694518 268 6191ft 24kts
19-Dec-21 17:34 38.803592 -104.701913 270 6191ft 20kts
19-Dec-21 17:35 38.803632 -104.710004 269 6191ft 23kts
19-Dec-21 17:36 38.803635 -104.716930 270 6191ft 21kts
19-Dec-21 17:37 38.807317 -104.719582 2 6191ft 22kts
19-Dec-21 17:38 38.810300 -104.719532 2 6191ft 21kts
19-Dec-21 17:39 38.812557 -104.721004 145 6191ft 0kts
19-Dec-21 17:40 38.812189 -104.720865 128 6191ft 13kts
19-Dec-21 17:41 38.809644 -104.720797 111 6191ft 16kts
19-Dec-21 17:42 38.809325 -104.720634 188 6191ft 0kts

Navigation Log

Ident Type
Flight plan parsing failed, navigation log unavailable